createdAt,value
2019-02-10T00:03:18.539Z,96092.00
2019-02-10T00:08:21.036Z,96098.00
2019-02-10T00:13:29.499Z,96099.00
2019-02-10T00:18:32.032Z,96099.00
2019-02-10T00:23:35.316Z,96096.00
2019-02-10T00:28:37.859Z,96089.00
2019-02-10T00:33:40.843Z,96075.00
2019-02-10T00:38:43.345Z,96079.00
2019-02-10T00:43:45.856Z,96073.00
2019-02-10T00:48:48.412Z,96060.00
2019-02-10T00:53:50.917Z,96059.00
2019-02-10T00:58:53.551Z,96052.00
2019-02-10T01:03:56.304Z,96042.00
2019-02-10T01:09:02.269Z,96038.00
2019-02-10T01:14:06.296Z,96042.00
2019-02-10T01:19:09.900Z,96024.00
2019-02-10T01:24:27.538Z,96020.00
2019-02-10T01:29:33.308Z,96022.00
2019-02-10T01:34:36.214Z,96017.00
2019-02-10T01:39:38.728Z,95996.00
2019-02-10T01:44:41.232Z,95994.00
2019-02-10T01:49:43.863Z,95989.00
2019-02-10T01:54:47.710Z,95988.00
2019-02-10T01:59:50.276Z,95986.00
2019-02-10T02:04:53.012Z,95963.00
2019-02-10T02:09:56.543Z,95951.00
2019-02-10T02:14:59.153Z,95937.00
2019-02-10T02:20:01.610Z,95926.00
2019-02-10T02:25:08.932Z,95913.00
2019-02-10T02:30:13.488Z,95891.00
2019-02-10T02:35:16.149Z,95875.00
2019-02-10T02:40:18.689Z,95856.00
2019-02-10T02:45:21.203Z,95855.00
2019-02-10T02:50:23.719Z,95860.00
2019-02-10T02:55:26.673Z,95858.00
2019-02-10T03:00:29.372Z,95867.00
2019-02-10T03:05:31.912Z,95855.00
2019-02-10T03:10:35.185Z,95836.00
2019-02-10T03:15:37.861Z,95832.00
2019-02-10T03:20:40.569Z,95817.00
2019-02-10T03:25:44.002Z,95830.00
2019-02-10T03:30:46.673Z,95806.00
2019-02-10T03:35:49.374Z,95818.00
2019-02-10T03:40:51.875Z,95646.00
2019-02-10T03:45:54.383Z,95788.00
2019-02-10T03:50:57.050Z,95792.00
2019-02-10T03:55:59.597Z,95794.00
2019-02-10T04:01:04.910Z,95783.00
2019-02-10T04:06:07.588Z,95780.00
2019-02-10T04:11:10.115Z,95773.00
2019-02-10T04:16:12.600Z,95748.00
2019-02-10T04:21:15.110Z,95755.00
2019-02-10T04:26:17.617Z,95738.00
2019-02-10T04:31:20.212Z,95741.00
2019-02-10T04:36:22.799Z,95755.00
2019-02-10T04:41:25.461Z,95738.00
2019-02-10T04:46:28.136Z,95729.00
2019-02-10T04:51:30.783Z,95724.00
2019-02-10T04:56:34.467Z,95706.00
2019-02-10T05:01:36.861Z,95687.00
2019-02-10T05:06:39.432Z,95681.00
2019-02-10T05:11:47.659Z,95673.00
2019-02-10T05:16:50.597Z,95667.00
2019-02-10T05:21:53.420Z,95645.00
2019-02-10T05:26:55.941Z,95633.00
2019-02-10T05:31:58.563Z,95618.00
2019-02-10T05:37:01.347Z,95615.00
2019-02-10T05:42:03.874Z,95596.00
2019-02-10T05:47:07.216Z,95594.00
2019-02-10T05:52:09.741Z,95594.00
2019-02-10T05:57:12.308Z,95586.00
2019-02-10T06:02:25.021Z,95570.00
2019-02-10T06:07:28.360Z,95568.00
2019-02-10T06:12:31.020Z,95556.00
2019-02-10T06:17:33.427Z,95549.00
2019-02-10T06:22:36.539Z,95534.00
2019-02-10T06:27:39.011Z,95546.00
2019-02-10T06:32:41.689Z,95537.00
2019-02-10T06:37:44.413Z,95535.00
2019-02-10T06:42:46.940Z,95541.00
2019-02-10T06:47:51.295Z,95543.00
2019-02-10T06:52:53.791Z,95516.00
2019-02-10T06:57:58.647Z,95509.00
2019-02-10T07:03:35.610Z,95509.00
2019-02-10T07:08:38.760Z,95484.00
2019-02-10T07:14:17.336Z,95453.00
2019-02-10T07:19:56.774Z,95464.00
2019-02-10T07:25:45.635Z,95447.00
2019-02-10T07:30:50.489Z,95436.00
2019-02-10T07:36:06.091Z,95436.00
2019-02-10T07:41:55.656Z,95426.00
2019-02-10T07:47:18.750Z,95434.00
2019-02-10T07:52:46.298Z,95454.00
2019-02-10T08:04:26.915Z,95421.00
2019-02-10T08:10:15.282Z,95424.00
2019-02-10T08:15:49.197Z,95421.00
2019-02-10T08:21:33.479Z,95403.00
2019-02-10T08:27:13.892Z,95409.00
2019-02-10T08:32:46.406Z,95421.00
2019-02-10T08:38:22.435Z,95391.00
2019-02-10T08:43:53.523Z,95385.00
2019-02-10T08:49:21.763Z,95386.00
2019-02-10T08:54:24.331Z,95361.00
2019-02-10T08:59:27.136Z,95346.00
2019-02-10T09:04:30.239Z,95345.00
2019-02-10T09:09:32.828Z,95367.00
2019-02-10T09:14:35.509Z,95375.00
2019-02-10T09:19:40.222Z,95365.00
2019-02-10T09:24:42.855Z,95337.00
2019-02-10T09:29:45.693Z,95337.00
2019-02-10T09:34:48.323Z,95331.00
2019-02-10T09:39:51.204Z,95332.00
2019-02-10T09:44:54.399Z,95350.00
2019-02-10T09:49:57.265Z,95343.00
2019-02-10T09:55:02.896Z,95326.00
2019-02-10T10:00:07.302Z,95318.00
2019-02-10T10:05:11.020Z,95272.00
2019-02-10T10:10:14.007Z,95280.00
2019-02-10T10:15:17.094Z,95270.00
2019-02-10T10:20:21.269Z,95248.00
2019-02-10T10:25:25.023Z,95217.00
2019-02-10T10:30:27.603Z,95205.00
2019-02-10T10:35:30.715Z,95177.00
2019-02-10T10:40:38.720Z,95148.00
2019-02-10T10:45:41.427Z,95116.00
2019-02-10T10:50:45.035Z,95101.00
2019-02-10T10:55:47.718Z,95095.00
2019-02-10T11:00:50.625Z,95095.00
2019-02-10T11:05:53.320Z,95079.00
2019-02-10T11:11:00.693Z,95055.00
2019-02-10T11:16:04.602Z,95021.00
2019-02-10T11:21:15.242Z,95005.00
2019-02-10T11:26:36.158Z,94978.00
2019-02-10T11:31:38.848Z,94979.00
2019-02-10T11:36:43.624Z,94979.00
2019-02-10T11:41:46.604Z,94985.00
2019-02-10T11:46:49.500Z,94965.00
2019-02-10T11:51:59.593Z,94955.00
2019-02-10T11:57:02.265Z,94938.00
2019-02-10T12:02:10.086Z,94917.00
2019-02-10T12:13:45.195Z,94909.00
2019-02-10T12:18:49.612Z,94901.00
2019-02-10T12:23:52.525Z,94894.00
2019-02-10T12:28:55.207Z,94880.00
2019-02-10T12:34:08.376Z,94876.00
2019-02-10T12:39:11.677Z,94865.00
2019-02-10T12:44:16.264Z,94856.00
2019-02-10T12:49:29.175Z,94837.00
2019-02-10T12:54:35.159Z,94817.00
2019-02-10T12:59:56.463Z,94873.00
2019-02-10T13:05:01.120Z,94811.00
2019-02-10T13:10:08.326Z,94770.00
2019-02-10T13:15:11.754Z,94769.00
2019-02-10T13:20:15.634Z,94752.00
2019-02-10T13:25:18.360Z,94748.00
2019-02-10T13:30:21.585Z,94753.00
2019-02-10T13:35:24.087Z,94732.00
2019-02-10T13:40:32.260Z,94723.00
2019-02-10T13:45:35.140Z,94708.00
2019-02-10T13:50:37.663Z,94675.00
2019-02-10T13:55:40.356Z,94697.00
2019-02-10T14:00:49.709Z,94700.00
2019-02-10T14:05:52.231Z,94714.00
2019-02-10T14:10:54.768Z,94698.00
2019-02-10T14:15:57.356Z,94693.00
2019-02-10T14:21:18.174Z,94671.00
2019-02-10T14:26:20.816Z,94675.00
2019-02-10T14:31:24.971Z,94647.00
2019-02-10T14:36:42.037Z,94646.00
2019-02-10T14:41:46.874Z,94656.00
2019-02-10T14:46:52.087Z,94659.00
2019-02-10T14:51:55.160Z,94644.00
2019-02-10T14:56:57.948Z,94630.00
2019-02-10T15:02:01.792Z,94617.00
2019-02-10T15:07:05.467Z,94585.00
2019-02-10T15:12:08.198Z,94604.00
2019-02-10T15:17:13.064Z,94618.00
2019-02-10T15:22:18.123Z,94614.00
2019-02-10T15:27:20.686Z,94605.00
2019-02-10T15:32:23.519Z,94595.00
2019-02-10T15:37:38.591Z,94587.00
2019-02-10T15:42:53.117Z,94558.00
2019-02-10T15:47:56.455Z,94584.00
2019-02-10T15:59:28.890Z,94583.00
2019-02-10T16:17:09.907Z,94599.00
2019-02-10T16:22:12.960Z,94580.00
2019-02-10T16:33:34.013Z,94574.00
2019-02-10T16:44:59.584Z,94558.00
2019-02-10T17:07:25.373Z,94515.00
2019-02-10T17:12:39.430Z,94509.00
2019-02-10T17:18:16.184Z,94517.00
2019-02-10T17:23:34.484Z,94532.00
2019-02-10T17:28:46.790Z,94530.00
2019-02-10T17:33:49.502Z,94537.00
2019-02-10T17:38:52.907Z,94557.00
2019-02-10T17:43:55.783Z,94612.00
2019-02-10T17:48:59.600Z,94683.00
2019-02-10T17:54:02.175Z,94629.00
2019-02-10T18:05:42.531Z,94620.00
2019-02-10T18:10:46.877Z,94636.00
2019-02-10T18:16:07.977Z,94648.00
2019-02-10T18:21:39.769Z,94664.00
2019-02-10T18:27:00.679Z,94650.00
2019-02-10T18:32:19.777Z,94657.00
2019-02-10T18:37:46.156Z,94685.00
2019-02-10T18:42:57.155Z,94725.00
2019-02-10T18:48:31.450Z,94725.00
2019-02-10T18:53:52.711Z,94712.00
2019-02-10T18:59:18.188Z,94730.00
2019-02-10T19:04:54.977Z,94760.00
2019-02-10T19:10:22.712Z,94767.00
2019-02-10T19:15:48.042Z,94759.00
2019-02-10T19:21:10.484Z,94766.00
2019-02-10T19:26:34.752Z,94786.00
2019-02-10T19:32:08.326Z,94812.00
2019-02-10T19:37:21.329Z,94814.00
2019-02-10T19:42:40.645Z,94823.00
2019-02-10T19:48:10.910Z,94816.00
2019-02-10T19:53:33.178Z,94828.00
2019-02-10T19:58:58.804Z,94786.00
2019-02-10T20:04:20.619Z,94836.00
2019-02-10T21:27:50.649Z,94889.00
2019-02-10T21:33:20.276Z,94851.00
2019-02-10T21:38:53.014Z,94871.00
2019-02-10T21:44:23.024Z,94898.00
2019-02-10T21:49:29.353Z,94892.00
2019-02-10T21:54:34.955Z,94898.00
2019-02-10T21:59:38.626Z,94903.00
2019-02-10T22:04:44.630Z,94897.00
2019-02-10T22:09:52.378Z,94907.00
2019-02-10T22:21:03.787Z,94876.00
2019-02-10T22:26:06.999Z,94875.00
2019-02-10T22:31:17.519Z,94884.00
2019-02-10T22:36:14.456Z,94862.00
2019-02-10T22:41:17.108Z,94884.00
2019-02-10T22:46:19.871Z,94877.00
2019-02-10T22:51:22.833Z,94889.00
2019-02-10T22:56:25.569Z,94907.00
2019-02-10T23:01:28.283Z,94906.00
2019-02-10T23:06:31.068Z,94903.00
2019-02-10T23:11:33.655Z,94917.00
2019-02-10T23:16:36.510Z,94924.00
2019-02-10T23:21:39.139Z,94867.00
2019-02-10T23:26:41.759Z,94908.00
2019-02-10T23:31:44.295Z,94960.00
2019-02-10T23:36:53.958Z,94954.00
2019-02-10T23:42:06.680Z,94973.00
2019-02-10T23:47:09.231Z,94966.00
2019-02-10T23:52:12.415Z,94963.00
2019-02-10T23:57:23.827Z,94976.00
